X  Schließen Metar Luftfahrt Wetterdaten     KCRE Grand Strand Airport
Temperatur
66°F Temperatur
57°F Taupunkt
73% Feuchtigkeit



Wind
6 MPH
10 KM/H
3 M/S
5 KTS



180°
Süd
Aktuelle Wetterlage

Klar Klar
Luftdruck 1024.02 (hPa) - 30.24 (inHg)
Sichtweite 9.9 (Meile) - 16 (km)
Flughafen
Flughafen Code KCRE

Position : Grand Strand Airport
Entfernung: 6 (mi)

Metar:
KCRE 271453Z 18005KT 10SM CLR 19/14 A3024 RMK AO1 SLP240 T01890144 51016

Zeit: 27-02-2021 9:53 am EST